createdAt,value
2023-02-01T00:00:50.767Z,3.87
2023-02-01T00:05:57.898Z,6.57
2023-02-01T00:11:01.590Z,3.78
2023-02-01T00:16:09.561Z,4.20
2023-02-01T00:21:12.142Z,5.43
2023-02-01T00:26:32.540Z,6.63
2023-02-01T00:31:34.321Z,3.78
2023-02-01T00:36:35.973Z,6.10
2023-02-01T00:41:37.696Z,6.55
2023-02-01T00:46:39.375Z,5.35
2023-02-01T00:51:40.996Z,4.43
2023-02-01T00:56:42.649Z,4.80
2023-02-01T01:01:44.562Z,6.15
2023-02-01T01:06:46.225Z,6.75
2023-02-01T01:11:47.824Z,6.57
2023-02-01T01:16:51.474Z,7.80
2023-02-01T01:21:53.089Z,6.40
2023-02-01T01:26:54.734Z,9.35
2023-02-01T01:31:56.453Z,5.45
2023-02-01T01:36:58.079Z,5.15
2023-02-01T01:41:59.803Z,4.40
2023-02-01T01:47:03.206Z,7.15
2023-02-01T01:52:05.185Z,6.03
2023-02-01T01:57:18.715Z,6.38
2023-02-01T02:02:20.419Z,5.37
2023-02-01T02:07:27.999Z,5.72
2023-02-01T02:12:29.646Z,7.35
2023-02-01T02:17:42.296Z,7.75
2023-02-01T02:23:07.682Z,5.93
2023-02-01T02:28:27.505Z,8.10
2023-02-01T02:34:00.861Z,4.03
2023-02-01T02:39:12.684Z,5.80
2023-02-01T02:44:39.083Z,5.68
2023-02-01T02:49:42.164Z,6.35
2023-02-01T02:54:47.869Z,6.55
2023-02-01T03:00:10.204Z,6.15
2023-02-01T03:05:12.114Z,7.97
2023-02-01T03:10:35.681Z,4.72
2023-02-01T03:15:50.425Z,4.40
2023-02-01T03:20:53.683Z,6.03
2023-02-01T03:25:56.759Z,7.30
2023-02-01T03:30:58.719Z,5.60
2023-02-01T03:36:23.717Z,6.50
2023-02-01T03:41:39.005Z,9.63
2023-02-01T03:46:49.548Z,7.25
2023-02-01T03:51:51.972Z,6.50
2023-02-01T03:56:55.323Z,8.35
2023-02-01T04:01:57.338Z,8.15
2023-02-01T04:06:59.001Z,7.90
2023-02-01T04:12:00.740Z,11.50
2023-02-01T04:17:02.372Z,5.80
2023-02-01T04:22:03.944Z,6.00
2023-02-01T04:27:05.663Z,7.37
2023-02-01T04:32:07.247Z,4.95
2023-02-01T04:37:09.009Z,5.93
2023-02-01T04:42:10.625Z,7.15
2023-02-01T04:47:12.263Z,5.57
2023-02-01T04:52:13.836Z,8.43
2023-02-01T04:57:15.945Z,6.20
2023-02-01T05:02:17.638Z,9.85
2023-02-01T05:07:19.242Z,6.80
2023-02-01T05:12:39.597Z,10.50
2023-02-01T05:17:41.305Z,8.23
2023-02-01T05:22:43.425Z,5.85
2023-02-01T05:27:45.188Z,7.57
2023-02-01T05:32:46.748Z,8.27
2023-02-01T05:37:48.382Z,9.57
2023-02-01T05:42:49.938Z,10.15
2023-02-01T05:47:52.058Z,9.38
2023-02-01T05:52:53.655Z,7.90
2023-02-01T05:57:55.244Z,7.05
2023-02-01T06:02:57.035Z,6.90
2023-02-01T06:07:59.451Z,10.02
2023-02-01T06:13:01.294Z,8.32
2023-02-01T06:18:02.955Z,6.53
2023-02-01T06:23:06.568Z,7.00
2023-02-01T06:28:09.146Z,6.03
2023-02-01T06:33:10.710Z,7.88
2023-02-01T06:38:12.658Z,7.00
2023-02-01T06:43:14.215Z,7.60
2023-02-01T06:48:15.813Z,5.90
2023-02-01T06:53:17.646Z,9.02
2023-02-01T06:58:19.279Z,9.00
2023-02-01T07:03:21.167Z,8.63
2023-02-01T07:08:22.751Z,9.25
2023-02-01T07:13:24.398Z,7.97
2023-02-01T07:18:27.005Z,7.65
2023-02-01T07:23:29.406Z,6.90
2023-02-01T07:28:34.196Z,8.10
2023-02-01T07:33:36.214Z,8.50
2023-02-01T07:38:37.853Z,7.97
2023-02-01T07:43:39.525Z,5.25
2023-02-01T07:48:41.114Z,7.07
2023-02-01T07:53:43.577Z,6.85
2023-02-01T07:58:49.097Z,8.07
2023-02-01T08:03:55.066Z,6.43
2023-02-01T08:08:56.738Z,9.38
2023-02-01T08:13:59.506Z,5.00
2023-02-01T08:19:01.154Z,7.72
2023-02-01T08:24:04.522Z,11.03
2023-02-01T08:29:08.152Z,8.38
2023-02-01T08:34:10.126Z,8.98
2023-02-01T08:39:12.374Z,8.90
2023-02-01T08:44:13.916Z,7.17
2023-02-01T08:49:15.521Z,10.15
2023-02-01T08:54:17.103Z,8.88
2023-02-01T08:59:18.747Z,10.02
2023-02-01T09:04:20.421Z,8.55
2023-02-01T09:09:25.071Z,7.82
2023-02-01T09:14:26.667Z,10.63
2023-02-01T09:19:28.269Z,5.60
2023-02-01T09:24:29.929Z,4.70
2023-02-01T09:29:31.595Z,7.70
2023-02-01T09:34:33.942Z,5.85
2023-02-01T09:39:36.105Z,10.47
2023-02-01T09:44:52.431Z,5.80
2023-02-01T09:50:05.990Z,8.85
2023-02-01T09:55:16.472Z,6.20
2023-02-01T10:00:27.664Z,6.23
2023-02-01T10:05:58.270Z,6.07
2023-02-01T10:11:08.903Z,4.15
2023-02-01T10:16:20.213Z,2.53
2023-02-01T10:21:49.441Z,5.93
2023-02-01T10:27:17.096Z,4.22
2023-02-01T10:32:22.974Z,6.63
2023-02-01T10:37:32.288Z,5.53
2023-02-01T10:42:33.954Z,6.65
2023-02-01T10:47:35.658Z,5.68
2023-02-01T10:53:05.638Z,7.20
2023-02-01T10:58:21.469Z,7.07
2023-02-01T11:03:35.357Z,5.57
2023-02-01T11:08:44.952Z,7.43
2023-02-01T11:13:53.568Z,6.78
2023-02-01T11:18:56.451Z,9.13
2023-02-01T11:24:03.382Z,6.43
2023-02-01T11:29:11.680Z,7.57
2023-02-01T11:34:16.335Z,8.00
2023-02-01T11:39:23.907Z,6.30
2023-02-01T11:44:32.731Z,7.63
2023-02-01T11:49:34.273Z,5.88
2023-02-01T11:55:12.838Z,4.87
2023-02-01T12:00:20.337Z,7.60
2023-02-01T12:05:24.665Z,6.47
2023-02-01T12:10:45.339Z,7.90
2023-02-01T12:16:03.742Z,6.80
2023-02-01T12:21:15.315Z,5.35
2023-02-01T12:26:41.841Z,4.60
2023-02-01T12:32:02.042Z,9.40
2023-02-01T12:37:03.614Z,7.68
2023-02-01T12:42:05.222Z,4.00
2023-02-01T12:47:12.747Z,5.07
2023-02-01T12:52:35.655Z,5.85
2023-02-01T12:57:42.076Z,4.55
2023-02-01T13:02:53.688Z,3.58
2023-02-01T13:08:01.440Z,6.15
2023-02-01T13:13:18.355Z,6.03
2023-02-01T13:18:21.849Z,7.03
2023-02-01T13:23:32.498Z,5.30
2023-02-01T13:28:53.977Z,8.95
2023-02-01T13:33:59.807Z,5.05
2023-02-01T13:39:13.724Z,7.22
2023-02-01T13:44:43.359Z,5.13
2023-02-01T13:49:45.015Z,4.15
2023-02-01T13:54:46.567Z,5.60
2023-02-01T13:59:53.187Z,5.40
2023-02-01T14:04:54.880Z,7.28
2023-02-01T14:09:56.486Z,7.30
2023-02-01T14:15:22.853Z,6.68
2023-02-01T14:20:41.946Z,7.28
2023-02-01T14:25:44.528Z,4.28
2023-02-01T14:30:48.391Z,5.30
2023-02-01T14:36:01.816Z,5.28
2023-02-01T14:41:31.624Z,5.45
2023-02-01T14:47:04.251Z,8.55
2023-02-01T14:52:10.951Z,5.05
2023-02-01T14:57:20.178Z,7.63
2023-02-01T15:02:25.921Z,6.55
2023-02-01T15:07:28.208Z,5.30
2023-02-01T15:12:32.760Z,7.32
2023-02-01T15:17:37.038Z,5.65
2023-02-01T15:22:38.627Z,7.05
2023-02-01T15:27:41.108Z,9.38
2023-02-01T15:32:42.767Z,6.63
2023-02-01T15:37:44.334Z,4.80
2023-02-01T15:42:53.529Z,5.25
2023-02-01T15:47:57.428Z,5.07
2023-02-01T15:52:59.072Z,6.60
2023-02-01T15:58:00.768Z,6.30
2023-02-01T16:03:05.486Z,5.70
2023-02-01T16:08:18.491Z,6.93
2023-02-01T16:13:23.820Z,5.13
2023-02-01T16:18:25.387Z,3.92
2023-02-01T16:23:27.144Z,4.15
2023-02-01T16:28:28.785Z,8.07
2023-02-01T16:33:30.528Z,6.53
2023-02-01T16:38:32.404Z,6.72
2023-02-01T16:43:34.007Z,5.47
2023-02-01T16:48:36.814Z,5.53
2023-02-01T16:53:53.162Z,7.68
2023-02-01T16:58:55.446Z,5.57
2023-02-01T17:03:57.249Z,5.80
2023-02-01T17:08:59.858Z,6.95
2023-02-01T17:14:18.727Z,1.20
2023-02-01T17:19:24.384Z,0.93
2023-02-01T17:24:35.728Z,1.52
2023-02-01T17:29:37.429Z,1.00
2023-02-01T17:34:39.055Z,1.07
2023-02-01T17:39:56.059Z,0.93
2023-02-01T17:45:03.091Z,0.98
2023-02-01T17:50:04.974Z,1.05
2023-02-01T17:55:16.688Z,0.70
2023-02-01T18:00:19.259Z,1.58
2023-02-01T18:05:27.697Z,0.93
2023-02-01T18:10:29.405Z,2.33
2023-02-01T18:15:31.851Z,1.75
2023-02-01T18:20:35.657Z,4.45
2023-02-01T18:25:38.624Z,2.88
2023-02-01T18:30:40.516Z,4.00
2023-02-01T18:35:42.337Z,6.13
2023-02-01T18:40:49.193Z,5.37
2023-02-01T18:45:51.076Z,3.50
2023-02-01T18:50:57.274Z,4.43
2023-02-01T18:55:59.737Z,3.35
2023-02-01T19:01:06.490Z,3.42
2023-02-01T19:06:08.731Z,3.27
2023-02-01T19:11:10.451Z,2.57
2023-02-01T19:16:13.560Z,3.17
2023-02-01T19:21:15.497Z,3.13
2023-02-01T19:26:18.007Z,3.80
2023-02-01T19:31:19.738Z,4.93
2023-02-01T19:36:21.341Z,3.53
2023-02-01T19:41:22.927Z,1.33
2023-02-01T19:46:25.455Z,1.58
2023-02-01T19:51:27.051Z,2.33
2023-02-01T19:56:28.643Z,2.13
2023-02-01T20:01:33.380Z,2.33
2023-02-01T20:06:38.476Z,3.37
2023-02-01T20:11:40.129Z,4.40
2023-02-01T20:16:42.552Z,4.38
2023-02-01T20:21:44.448Z,3.33
2023-02-01T20:26:46.942Z,2.30
2023-02-01T20:31:48.676Z,1.80
2023-02-01T20:36:50.431Z,3.60
2023-02-01T20:41:52.059Z,3.67
2023-02-01T20:46:53.710Z,4.47
2023-02-01T20:51:57.780Z,3.95
2023-02-01T20:56:59.379Z,2.03
2023-02-01T21:02:01.476Z,3.83
2023-02-01T21:07:03.510Z,2.13
2023-02-01T21:12:05.264Z,3.25
2023-02-01T21:17:06.818Z,1.90
2023-02-01T21:22:12.232Z,3.73
2023-02-01T21:27:13.930Z,4.53
2023-02-01T21:32:15.715Z,2.70
2023-02-01T21:37:17.301Z,3.00
2023-02-01T21:42:21.789Z,3.85
2023-02-01T21:47:26.023Z,3.33
2023-02-01T21:52:28.443Z,2.57
2023-02-01T21:57:30.056Z,2.60
2023-02-01T22:02:31.687Z,2.17
2023-02-01T22:07:35.896Z,1.93
2023-02-01T22:12:37.671Z,3.75
2023-02-01T22:17:39.395Z,2.25
2023-02-01T22:22:41.401Z,2.40
2023-02-01T22:28:31.090Z,3.17
2023-02-01T22:33:04.538Z,2.97
2023-02-01T22:38:06.103Z,2.33
2023-02-01T22:43:07.732Z,4.07
2023-02-01T22:48:09.382Z,3.97
2023-02-01T22:53:11.138Z,2.73
2023-02-01T22:58:12.830Z,6.03
2023-02-01T23:03:14.480Z,4.60
2023-02-01T23:08:16.091Z,4.03
2023-02-01T23:13:17.701Z,3.90
2023-02-01T23:18:19.298Z,4.90
2023-02-01T23:23:21.003Z,8.57
2023-02-01T23:28:22.569Z,4.17
2023-02-01T23:33:25.651Z,3.67
2023-02-01T23:38:27.970Z,3.90
2023-02-01T23:43:48.212Z,3.93
2023-02-01T23:48:52.847Z,4.35
2023-02-01T23:53:55.121Z,4.37
2023-02-01T23:58:57.098Z,2.72
